sensor_id;sensor_type;location;lat;lon;timestamp;pressure;altitude;pressure_sealevel;temperature;humidity
46347;BME280;32057;47.830;19.046;2023-03-26T00:00:52;99663.06;;;8.08;87.45
46347;BME280;32057;47.830;19.046;2023-03-26T00:03:20;99657.84;;;8.06;87.57
46347;BME280;32057;47.830;19.046;2023-03-26T00:05:46;99656.13;;;8.05;87.55
46347;BME280;32057;47.830;19.046;2023-03-26T00:08:13;99661.31;;;8.05;87.40
46347;BME280;32057;47.830;19.046;2023-03-26T00:10:39;99656.00;;;8.01;87.80
46347;BME280;32057;47.830;19.046;2023-03-26T00:13:05;99656.81;;;7.98;87.53
46347;BME280;32057;47.830;19.046;2023-03-26T00:15:32;99659.38;;;7.96;87.40
46347;BME280;32057;47.830;19.046;2023-03-26T00:17:58;99656.81;;;7.98;87.13
46347;BME280;32057;47.830;19.046;2023-03-26T00:20:25;99662.13;;;8.04;86.10
46347;BME280;32057;47.830;19.046;2023-03-26T00:22:52;99651.72;;;8.01;85.29
46347;BME280;32057;47.830;19.046;2023-03-26T00:25:18;99667.31;;;8.04;85.18
46347;BME280;32057;47.830;19.046;2023-03-26T00:27:44;99675.94;;;8.03;85.57
46347;BME280;32057;47.830;19.046;2023-03-26T00:30:10;99667.31;;;8.04;85.10
46347;BME280;32057;47.830;19.046;2023-03-26T00:32:36;99669.97;;;8.07;85.49
46347;BME280;32057;47.830;19.046;2023-03-26T00:35:02;99662.91;;;8.00;85.20
46347;BME280;32057;47.830;19.046;2023-03-26T00:37:28;99666.41;;;8.02;85.57
46347;BME280;32057;47.830;19.046;2023-03-26T00:39:56;99667.38;;;8.07;85.72
46347;BME280;32057;47.830;19.046;2023-03-26T00:42:27;99658.59;;;8.01;85.29
46347;BME280;32057;47.830;19.046;2023-03-26T00:44:52;99657.44;;;7.86;85.46
46347;BME280;32057;47.830;19.046;2023-03-26T00:47:26;99652.38;;;7.92;85.17
46347;BME280;32057;47.830;19.046;2023-03-26T00:49:52;99646.34;;;7.92;85.09
46347;BME280;32057;47.830;19.046;2023-03-26T00:52:18;99657.50;;;7.88;85.50
46347;BME280;32057;47.830;19.046;2023-03-26T00:54:44;99651.41;;;7.86;84.98
46347;BME280;32057;47.830;19.046;2023-03-26T00:57:10;99650.53;;;7.87;85.05
46347;BME280;32057;47.830;19.046;2023-03-26T00:59:40;99649.75;;;7.89;84.76
46347;BME280;32057;47.830;19.046;2023-03-26T01:02:08;99645.41;;;7.88;85.52
46347;BME280;32057;47.830;19.046;2023-03-26T01:04:36;99654.00;;;7.86;85.15
46347;BME280;32057;47.830;19.046;2023-03-26T01:07:13;99644.47;;;7.85;84.50
46347;BME280;32057;47.830;19.046;2023-03-26T01:09:43;99644.28;;;7.75;85.50
46347;BME280;32057;47.830;19.046;2023-03-26T01:12:12;99652.63;;;7.62;85.94
46347;BME280;32057;47.830;19.046;2023-03-26T01:14:40;99655.19;;;7.61;86.10
46347;BME280;32057;47.830;19.046;2023-03-26T01:17:06;99654.06;;;7.48;86.73
46347;BME280;32057;47.830;19.046;2023-03-26T01:22:03;99647.06;;;7.44;87.24
46347;BME280;32057;47.830;19.046;2023-03-26T01:24:30;99636.72;;;7.44;87.48
46347;BME280;32057;47.830;19.046;2023-03-26T01:41:14;99641.41;;;7.62;86.47
46347;BME280;32057;47.830;19.046;2023-03-26T01:43:45;99643.00;;;7.56;86.99
46347;BME280;32057;47.830;19.046;2023-03-26T01:46:14;99637.88;;;7.58;87.26
46347;BME280;32057;47.830;19.046;2023-03-26T01:48:42;99643.91;;;7.57;87.30
46347;BME280;32057;47.830;19.046;2023-03-26T01:51:10;99635.34;;;7.60;87.88
46347;BME280;32057;47.830;19.046;2023-03-26T01:53:43;99644.56;;;7.48;87.80
46347;BME280;32057;47.830;19.046;2023-03-26T01:58:54;99648.66;;;7.37;87.60
46347;BME280;32057;47.830;19.046;2023-03-26T02:09:28;99660.16;;;7.12;87.96
46347;BME280;32057;47.830;19.046;2023-03-26T02:11:54;99668.16;;;6.86;87.30
46347;BME280;32057;47.830;19.046;2023-03-26T02:14:21;99662.28;;;6.58;87.41
46347;BME280;32057;47.830;19.046;2023-03-26T02:16:46;99663.75;;;6.49;88.10
46347;BME280;32057;47.830;19.046;2023-03-26T02:19:13;99662.69;;;6.07;88.55
46347;BME280;32057;47.830;19.046;2023-03-26T02:21:40;99666.47;;;5.90;91.00
46347;BME280;32057;47.830;19.046;2023-03-26T02:24:06;99673.94;;;5.81;92.87
46347;BME280;32057;47.830;19.046;2023-03-26T02:26:34;99670.19;;;5.69;93.94
46347;BME280;32057;47.830;19.046;2023-03-26T02:29:00;99672.72;;;5.68;94.42
46347;BME280;32057;47.830;19.046;2023-03-26T02:31:26;99672.28;;;5.54;93.91
46347;BME280;32057;47.830;19.046;2023-03-26T02:33:53;99664.28;;;5.45;93.19
46347;BME280;32057;47.830;19.046;2023-03-26T02:36:19;99663.41;;;5.17;93.28
46347;BME280;32057;47.830;19.046;2023-03-26T02:38:49;99663.69;;;4.97;95.23
46347;BME280;32057;47.830;19.046;2023-03-26T02:41:14;99666.47;;;5.04;96.86
46347;BME280;32057;47.830;19.046;2023-03-26T02:43:40;99665.63;;;5.05;97.60
46347;BME280;32057;47.830;19.046;2023-03-26T02:46:05;99658.56;;;4.99;98.02
46347;BME280;32057;47.830;19.046;2023-03-26T02:48:30;99658.91;;;4.83;95.34
46347;BME280;32057;47.830;19.046;2023-03-26T02:50:59;99663.59;;;4.69;98.12
46347;BME280;32057;47.830;19.046;2023-03-26T02:53:25;99656.25;;;4.81;100.00
46347;BME280;32057;47.830;19.046;2023-03-26T02:55:54;99654.28;;;4.72;98.50
46347;BME280;32057;47.830;19.046;2023-03-26T02:58:20;99653.22;;;4.66;97.75
46347;BME280;32057;47.830;19.046;2023-03-26T03:00:46;99646.25;;;4.37;100.00
46347;BME280;32057;47.830;19.046;2023-03-26T03:03:14;99648.31;;;4.48;100.00
46347;BME280;32057;47.830;19.046;2023-03-26T03:05:41;99656.41;;;4.58;100.00
46347;BME280;32057;47.830;19.046;2023-03-26T03:08:08;99657.25;;;4.59;99.65
46347;BME280;32057;47.830;19.046;2023-03-26T03:10:34;99658.44;;;4.69;100.00
46347;BME280;32057;47.830;19.046;2023-03-26T03:13:02;99661.19;;;4.73;100.00
46347;BME280;32057;47.830;19.046;2023-03-26T03:15:30;99653.50;;;4.75;100.00
46347;BME280;32057;47.830;19.046;2023-03-26T03:17:55;99662.16;;;4.77;99.79
46347;BME280;32057;47.830;19.046;2023-03-26T03:20:21;99657.19;;;4.83;100.00
46347;BME280;32057;47.830;19.046;2023-03-26T03:22:46;99651.38;;;4.89;100.00
46347;BME280;32057;47.830;19.046;2023-03-26T03:25:11;99661.13;;;4.72;97.80
46347;BME280;32057;47.830;19.046;2023-03-26T03:27:39;99656.44;;;4.60;99.42
46347;BME280;32057;47.830;19.046;2023-03-26T03:30:06;99656.19;;;4.52;100.00
46347;BME280;32057;47.830;19.046;2023-03-26T03:32:31;99656.31;;;4.55;100.00
46347;BME280;32057;47.830;19.046;2023-03-26T03:34:57;99652.81;;;4.53;100.00
46347;BME280;32057;47.830;19.046;2023-03-26T03:37:24;99659.06;;;4.36;99.74
46347;BME280;32057;47.830;19.046;2023-03-26T03:39:51;99666.41;;;4.25;100.00
46347;BME280;32057;47.830;19.046;2023-03-26T03:42:16;99667.19;;;4.23;100.00
46347;BME280;32057;47.830;19.046;2023-03-26T03:44:42;99670.41;;;4.15;100.00
46347;BME280;32057;47.830;19.046;2023-03-26T03:47:07;99668.75;;;4.17;100.00
46347;BME280;32057;47.830;19.046;2023-03-26T03:49:37;99672.63;;;4.30;100.00
46347;BME280;32057;47.830;19.046;2023-03-26T03:52:03;99679.69;;;4.36;100.00
46347;BME280;32057;47.830;19.046;2023-03-26T03:54:28;99681.72;;;4.21;100.00
46347;BME280;32057;47.830;19.046;2023-03-26T03:56:54;99687.56;;;4.16;100.00
46347;BME280;32057;47.830;19.046;2023-03-26T03:59:20;99683.09;;;4.11;100.00
46347;BME280;32057;47.830;19.046;2023-03-26T04:01:45;99690.50;;;4.02;100.00
46347;BME280;32057;47.830;19.046;2023-03-26T04:04:15;99687.03;;;4.01;100.00
46347;BME280;32057;47.830;19.046;2023-03-26T04:06:41;99688.94;;;3.83;100.00
46347;BME280;32057;47.830;19.046;2023-03-26T04:09:06;99690.56;;;3.81;100.00
46347;BME280;32057;47.830;19.046;2023-03-26T04:11:31;99683.94;;;3.87;100.00
46347;BME280;32057;47.830;19.046;2023-03-26T04:13:57;99686.50;;;3.87;100.00
46347;BME280;32057;47.830;19.046;2023-03-26T04:16:22;99684.72;;;3.85;100.00
46347;BME280;32057;47.830;19.046;2023-03-26T04:18:47;99688.22;;;3.87;100.00
46347;BME280;32057;47.830;19.046;2023-03-26T04:21:13;99689.41;;;3.72;100.00
46347;BME280;32057;47.830;19.046;2023-03-26T04:23:40;99683.72;;;3.81;100.00
46347;BME280;32057;47.830;19.046;2023-03-26T04:26:08;99689.81;;;3.61;100.00
46347;BME280;32057;47.830;19.046;2023-03-26T04:28:44;99688.56;;;3.73;100.00
46347;BME280;32057;47.830;19.046;2023-03-26T04:31:15;99671.78;;;3.83;100.00
46347;BME280;32057;47.830;19.046;2023-03-26T04:33:44;99682.13;;;3.85;100.00
46347;BME280;32057;47.830;19.046;2023-03-26T04:36:15;99690.63;;;3.82;100.00
46347;BME280;32057;47.830;19.046;2023-03-26T04:38:43;99690.50;;;3.79;100.00
46347;BME280;32057;47.830;19.046;2023-03-26T04:41:13;99689.63;;;3.78;100.00
46347;BME280;32057;47.830;19.046;2023-03-26T04:43:39;99688.88;;;3.81;100.00
46347;BME280;32057;47.830;19.046;2023-03-26T04:46:07;99682.84;;;3.81;100.00
46347;BME280;32057;47.830;19.046;2023-03-26T04:48:35;99692.22;;;3.78;100.00
46347;BME280;32057;47.830;19.046;2023-03-26T04:51:02;99689.28;;;3.69;100.00
46347;BME280;32057;47.830;19.046;2023-03-26T04:53:31;99679.91;;;3.70;100.00
46347;BME280;32057;47.830;19.046;2023-03-26T04:56:12;99677.19;;;3.67;100.00
46347;BME280;32057;47.830;19.046;2023-03-26T04:58:40;99680.19;;;3.77;100.00
46347;BME280;32057;47.830;19.046;2023-03-26T05:01:08;99678.56;;;3.81;100.00
46347;BME280;32057;47.830;19.046;2023-03-26T05:03:35;99688.00;;;3.81;100.00
46347;BME280;32057;47.830;19.046;2023-03-26T05:06:05;99690.78;;;3.87;100.00
46347;BME280;32057;47.830;19.046;2023-03-26T05:08:30;99683.47;;;3.97;100.00
46347;BME280;32057;47.830;19.046;2023-03-26T05:10:56;99682.56;;;4.19;100.00
46347;BME280;32057;47.830;19.046;2023-03-26T05:13:22;99670.31;;;4.64;100.00
46347;BME280;32057;47.830;19.046;2023-03-26T05:15:48;99678.63;;;5.08;100.00
46347;BME280;32057;47.830;19.046;2023-03-26T05:18:14;99672.13;;;5.48;100.00
46347;BME280;32057;47.830;19.046;2023-03-26T05:20:40;99684.03;;;5.73;100.00
46347;BME280;32057;47.830;19.046;2023-03-26T05:23:06;99689.59;;;5.87;100.00
46347;BME280;32057;47.830;19.046;2023-03-26T05:25:32;99679.03;;;6.08;100.00
46347;BME280;32057;47.830;19.046;2023-03-26T05:27:59;99671.28;;;6.40;100.00
46347;BME280;32057;47.830;19.046;2023-03-26T05:30:25;99665.56;;;6.51;100.00
46347;BME280;32057;47.830;19.046;2023-03-26T05:32:50;99668.69;;;7.08;97.93
46347;BME280;32057;47.830;19.046;2023-03-26T05:35:17;99671.59;;;7.60;97.28
46347;BME280;32057;47.830;19.046;2023-03-26T05:37:43;99663.94;;;8.07;94.65
46347;BME280;32057;47.830;19.046;2023-03-26T05:40:10;99658.44;;;7.91;95.97
46347;BME280;32057;47.830;19.046;2023-03-26T05:42:38;99664.34;;;7.45;98.49
46347;BME280;32057;47.830;19.046;2023-03-26T05:45:05;99666.16;;;7.49;99.34
46347;BME280;32057;47.830;19.046;2023-03-26T05:47:31;99659.88;;;7.78;98.87
46347;BME280;32057;47.830;19.046;2023-03-26T05:49:57;99664.94;;;8.61;93.86
46347;BME280;32057;47.830;19.046;2023-03-26T05:52:23;99653.84;;;9.24;89.14
46347;BME280;32057;47.830;19.046;2023-03-26T05:54:49;99657.22;;;9.17;89.72
46347;BME280;32057;47.830;19.046;2023-03-26T05:57:14;99657.06;;;9.08;88.79
46347;BME280;32057;47.830;19.046;2023-03-26T05:59:39;99660.19;;;8.85;89.60
46347;BME280;32057;47.830;19.046;2023-03-26T06:02:06;99655.81;;;8.83;88.35
46347;BME280;32057;47.830;19.046;2023-03-26T06:04:31;99653.28;;;8.87;88.69
46347;BME280;32057;47.830;19.046;2023-03-26T06:06:57;99655.91;;;8.89;90.24
46347;BME280;32057;47.830;19.046;2023-03-26T06:09:22;99658.25;;;8.73;85.80
46347;BME280;32057;47.830;19.046;2023-03-26T06:11:48;99654.00;;;8.77;84.29
46347;BME280;32057;47.830;19.046;2023-03-26T06:14:13;99652.13;;;8.70;84.54
46347;BME280;32057;47.830;19.046;2023-03-26T06:16:39;99654.00;;;8.78;82.88
46347;BME280;32057;47.830;19.046;2023-03-26T06:19:05;99654.22;;;8.92;82.25
46347;BME280;32057;47.830;19.046;2023-03-26T06:21:30;99658.00;;;9.11;82.47
46347;BME280;32057;47.830;19.046;2023-03-26T06:23:55;99665.28;;;9.35;81.31
46347;BME280;32057;47.830;19.046;2023-03-26T06:26:21;99647.25;;;9.45;80.09
46347;BME280;32057;47.830;19.046;2023-03-26T06:28:46;99645.78;;;9.67;79.75
46347;BME280;32057;47.830;19.046;2023-03-26T06:31:12;99648.38;;;9.68;78.68
46347;BME280;32057;47.830;19.046;2023-03-26T06:33:37;99649.47;;;9.86;78.39
46347;BME280;32057;47.830;19.046;2023-03-26T06:36:03;99649.38;;;9.75;77.66
46347;BME280;32057;47.830;19.046;2023-03-26T06:38:29;99655.88;;;10.14;78.60
46347;BME280;32057;47.830;19.046;2023-03-26T06:41:01;99660.53;;;10.41;77.22
46347;BME280;32057;47.830;19.046;2023-03-26T06:43:27;99654.72;;;10.70;77.24
46347;BME280;32057;47.830;19.046;2023-03-26T06:45:53;99654.81;;;10.77;73.22
46347;BME280;32057;47.830;19.046;2023-03-26T06:48:18;99657.56;;;10.94;72.63
46347;BME280;32057;47.830;19.046;2023-03-26T06:50:43;99643.88;;;11.23;72.47
46347;BME280;32057;47.830;19.046;2023-03-26T06:53:09;99650.06;;;11.44;70.04
46347;BME280;32057;47.830;19.046;2023-03-26T06:55:35;99643.16;;;11.52;68.86
46347;BME280;32057;47.830;19.046;2023-03-26T06:58:00;99641.50;;;11.65;68.13
46347;BME280;32057;47.830;19.046;2023-03-26T07:00:26;99644.25;;;11.91;69.90
46347;BME280;32057;47.830;19.046;2023-03-26T07:02:51;99645.19;;;12.13;68.38
46347;BME280;32057;47.830;19.046;2023-03-26T07:05:17;99634.81;;;12.28;68.80
46347;BME280;32057;47.830;19.046;2023-03-26T07:07:42;99632.22;;;12.39;66.86
46347;BME280;32057;47.830;19.046;2023-03-26T07:10:09;99623.53;;;12.39;66.11
46347;BME280;32057;47.830;19.046;2023-03-26T07:12:35;99627.03;;;12.54;64.06
46347;BME280;32057;47.830;19.046;2023-03-26T07:15:01;99626.16;;;12.68;64.17
46347;BME280;32057;47.830;19.046;2023-03-26T07:17:27;99618.31;;;12.94;63.60
46347;BME280;32057;47.830;19.046;2023-03-26T07:19:53;99627.00;;;13.10;63.00
46347;BME280;32057;47.830;19.046;2023-03-26T07:22:21;99626.13;;;13.35;62.87
46347;BME280;32057;47.830;19.046;2023-03-26T07:24:47;99625.25;;;13.40;62.26
46347;BME280;32057;47.830;19.046;2023-03-26T07:30:02;99633.94;;;13.48;61.59
46347;BME280;32057;47.830;19.046;2023-03-26T07:32:40;99619.97;;;13.58;60.43
46347;BME280;32057;47.830;19.046;2023-03-26T07:35:29;99626.13;;;13.20;60.86
46347;BME280;32057;47.830;19.046;2023-03-26T07:46:12;99620.06;;;12.66;61.30
46347;BME280;32057;47.830;19.046;2023-03-26T07:48:40;99620.94;;;12.62;61.19
46347;BME280;32057;47.830;19.046;2023-03-26T07:51:07;99630.44;;;12.10;63.03
46347;BME280;32057;47.830;19.046;2023-03-26T07:53:33;99625.94;;;11.82;63.42
46347;BME280;32057;47.830;19.046;2023-03-26T07:56:15;99633.84;;;11.95;63.74
46347;BME280;32057;47.830;19.046;2023-03-26T07:59:02;99627.81;;;12.09;64.08
46347;BME280;32057;47.830;19.046;2023-03-26T08:07:06;99620.06;;;12.61;60.55
46347;BME280;32057;47.830;19.046;2023-03-26T08:12:51;99621.78;;;12.64;60.89
46347;BME280;32057;47.830;19.046;2023-03-26T08:15:09;99620.06;;;12.47;59.93
46347;BME280;32057;47.830;19.046;2023-03-26T08:17:53;99632.22;;;12.33;61.55
46347;BME280;32057;47.830;19.046;2023-03-26T08:23:01;99628.72;;;12.34;61.83
46347;BME280;32057;47.830;19.046;2023-03-26T08:25:36;99628.63;;;11.95;63.20
46347;BME280;32057;47.830;19.046;2023-03-26T08:31:10;99629.56;;;12.18;63.13
46347;BME280;32057;47.830;19.046;2023-03-26T08:33:37;99638.28;;;12.26;63.26
46347;BME280;32057;47.830;19.046;2023-03-26T08:36:05;99633.94;;;12.28;62.69
46347;BME280;32057;47.830;19.046;2023-03-26T08:38:31;99640.03;;;12.31;64.13
46347;BME280;32057;47.830;19.046;2023-03-26T08:55:02;99625.28;;;12.60;61.45
46347;BME280;32057;47.830;19.046;2023-03-26T09:44:49;99599.13;;;13.12;59.64
46347;BME280;32057;47.830;19.046;2023-03-26T10:07:40;99573.88;;;13.34;55.65
46347;BME280;32057;47.830;19.046;2023-03-26T10:10:00;99564.19;;;13.59;55.61
46347;BME280;32057;47.830;19.046;2023-03-26T10:12:42;99549.38;;;13.64;56.23
46347;BME280;32057;47.830;19.046;2023-03-26T10:18:14;99538.69;;;14.03;56.42
46347;BME280;32057;47.830;19.046;2023-03-26T10:26:56;99522.56;;;14.61;53.97
46347;BME280;32057;47.830;19.046;2023-03-26T10:29:58;99511.16;;;14.67;52.66
46347;BME280;32057;47.830;19.046;2023-03-26T10:36:04;99497.81;;;14.93;51.84
46347;BME280;32057;47.830;19.046;2023-03-26T10:41:33;99493.09;;;15.24;51.45
46347;BME280;32057;47.830;19.046;2023-03-26T10:55:21;99483.78;;;15.68;49.78
46347;BME280;32057;47.830;19.046;2023-03-26T10:57:54;99480.22;;;15.74;49.12
46347;BME280;32057;47.830;19.046;2023-03-26T11:00:22;99483.72;;;15.75;47.88
46347;BME280;32057;47.830;19.046;2023-03-26T11:08:52;99452.53;;;15.51;47.85
46347;BME280;32057;47.830;19.046;2023-03-26T11:11:30;99446.88;;;15.84;47.73
46347;BME280;32057;47.830;19.046;2023-03-26T11:19:51;99436.09;;;15.99;45.66
46347;BME280;32057;47.830;19.046;2023-03-26T11:22:41;99424.66;;;16.05;45.45
46347;BME280;32057;47.830;19.046;2023-03-26T11:30:47;99408.09;;;16.01;46.78
46347;BME280;32057;47.830;19.046;2023-03-26T11:33:22;99401.72;;;16.18;46.97
46347;BME280;32057;47.830;19.046;2023-03-26T11:35:50;99397.66;;;15.98;44.72
46347;BME280;32057;47.830;19.046;2023-03-26T11:38:18;99385.88;;;16.22;46.52
46347;BME280;32057;47.830;19.046;2023-03-26T11:40:49;99390.75;;;16.42;46.37
46347;BME280;32057;47.830;19.046;2023-03-26T11:43:18;99374.91;;;16.45;45.09
46347;BME280;32057;47.830;19.046;2023-03-26T11:45:47;99366.66;;;16.65;45.15
46347;BME280;32057;47.830;19.046;2023-03-26T11:48:23;99361.47;;;16.64;43.45
46347;BME280;32057;47.830;19.046;2023-03-26T11:50:57;99366.72;;;16.62;43.21
46347;BME280;32057;47.830;19.046;2023-03-26T11:53:28;99367.47;;;16.69;43.37
46347;BME280;32057;47.830;19.046;2023-03-26T12:04:11;99342.91;;;16.71;42.34
46347;BME280;32057;47.830;19.046;2023-03-26T12:06:38;99338.69;;;16.63;41.96
46347;BME280;32057;47.830;19.046;2023-03-26T12:09:03;99324.53;;;16.71;41.62
46347;BME280;32057;47.830;19.046;2023-03-26T12:11:39;99314.44;;;16.51;41.21
46347;BME280;32057;47.830;19.046;2023-03-26T12:14:06;99321.16;;;16.63;42.44
46347;BME280;32057;47.830;19.046;2023-03-26T12:16:33;99309.06;;;16.58;40.40
46347;BME280;32057;47.830;19.046;2023-03-26T12:19:04;99303.88;;;16.53;43.11
46347;BME280;32057;47.830;19.046;2023-03-26T12:21:46;99306.34;;;16.61;40.40
46347;BME280;32057;47.830;19.046;2023-03-26T12:24:26;99300.22;;;16.62;39.96
46347;BME280;32057;47.830;19.046;2023-03-26T12:32:40;99268.06;;;16.49;41.30
46347;BME280;32057;47.830;19.046;2023-03-26T12:35:13;99259.63;;;16.35;40.93
46347;BME280;32057;47.830;19.046;2023-03-26T12:37:43;99251.94;;;15.79;43.32
46347;BME280;32057;47.830;19.046;2023-03-26T12:42:57;99258.66;;;15.44;43.58
46347;BME280;32057;47.830;19.046;2023-03-26T12:45:36;99256.53;;;15.64;44.08
46347;BME280;32057;47.830;19.046;2023-03-26T12:48:02;99251.84;;;15.83;44.47
46347;BME280;32057;47.830;19.046;2023-03-26T12:56:54;99241.53;;;16.21;47.44
46347;BME280;32057;47.830;19.046;2023-03-26T13:12:41;99232.91;;;16.16;40.30
46347;BME280;32057;47.830;19.046;2023-03-26T13:15:18;99234.84;;;16.04;41.56
46347;BME280;32057;47.830;19.046;2023-03-26T13:18:04;99217.38;;;16.03;41.39
46347;BME280;32057;47.830;19.046;2023-03-26T13:20:48;99221.47;;;16.17;41.96
46347;BME280;32057;47.830;19.046;2023-03-26T13:28:26;99206.03;;;16.01;41.05
46347;BME280;32057;47.830;19.046;2023-03-26T13:33:44;99201.00;;;15.92;43.72
46347;BME280;32057;47.830;19.046;2023-03-26T13:36:18;99201.22;;;15.80;43.27
46347;BME280;32057;47.830;19.046;2023-03-26T13:47:10;99187.91;;;15.90;43.19
46347;BME280;32057;47.830;19.046;2023-03-26T13:50:05;99176.22;;;16.05;41.65
46347;BME280;32057;47.830;19.046;2023-03-26T13:53:36;99167.59;;;16.00;42.80
46347;BME280;32057;47.830;19.046;2023-03-26T13:55:34;99166.81;;;15.93;42.23
46347;BME280;32057;47.830;19.046;2023-03-26T14:03:16;99153.38;;;15.65;41.76
46347;BME280;32057;47.830;19.046;2023-03-26T14:05:47;99148.94;;;15.69;43.56
46347;BME280;32057;47.830;19.046;2023-03-26T14:08:28;99150.72;;;15.67;42.14
46347;BME280;32057;47.830;19.046;2023-03-26T14:11:14;99149.03;;;15.64;41.83
46347;BME280;32057;47.830;19.046;2023-03-26T14:14:03;99144.72;;;15.62;42.05
46347;BME280;32057;47.830;19.046;2023-03-26T14:16:35;99147.34;;;15.62;42.47
46347;BME280;32057;47.830;19.046;2023-03-26T14:26:06;99144.75;;;15.60;41.03
46347;BME280;32057;47.830;19.046;2023-03-26T14:34:35;99112.66;;;16.31;40.40
46347;BME280;32057;47.830;19.046;2023-03-26T14:53:39;99072.63;;;15.83;39.62
46347;BME280;32057;47.830;19.046;2023-03-26T15:12:29;99049.00;;;15.83;39.32
46347;BME280;32057;47.830;19.046;2023-03-26T15:24:35;99033.66;;;15.64;38.46
46347;BME280;32057;47.830;19.046;2023-03-26T15:43:25;98996.72;;;16.14;37.59
46347;BME280;32057;47.830;19.046;2023-03-26T15:51:14;98991.72;;;16.03;37.20
46347;BME280;32057;47.830;19.046;2023-03-26T15:53:53;98981.22;;;16.03;38.21
46347;BME280;32057;47.830;19.046;2023-03-26T16:10:24;98956.22;;;15.48;39.28
46347;BME280;32057;47.830;19.046;2023-03-26T16:13:16;98951.31;;;15.32;40.05
46347;BME280;32057;47.830;19.046;2023-03-26T16:18:40;98947.41;;;15.10;41.03
46347;BME280;32057;47.830;19.046;2023-03-26T16:33:37;98954.19;;;14.75;41.65
46347;BME280;32057;47.830;19.046;2023-03-26T16:36:13;98939.44;;;14.69;42.30
46347;BME280;32057;47.830;19.046;2023-03-26T16:41:25;98946.78;;;14.47;46.98
46347;BME280;32057;47.830;19.046;2023-03-26T16:44:18;98941.75;;;14.37;48.63
46347;BME280;32057;47.830;19.046;2023-03-26T16:55:22;98954.06;;;13.75;52.02
46347;BME280;32057;47.830;19.046;2023-03-26T16:58:20;98949.19;;;13.51;51.79
46347;BME280;32057;47.830;19.046;2023-03-26T17:03:42;98942.53;;;13.25;51.56
46347;BME280;32057;47.830;19.046;2023-03-26T17:06:35;98935.69;;;13.13;55.18
46347;BME280;32057;47.830;19.046;2023-03-26T17:09:31;98934.16;;;12.99;54.63
46347;BME280;32057;47.830;19.046;2023-03-26T17:22:55;98931.84;;;11.67;59.36
46347;BME280;32057;47.830;19.046;2023-03-26T17:25:30;98936.31;;;11.44;60.33
46347;BME280;32057;47.830;19.046;2023-03-26T17:33:36;98933.88;;;11.13;61.63
46347;BME280;32057;47.830;19.046;2023-03-26T17:41:07;98942.56;;;11.12;61.47
46347;BME280;32057;47.830;19.046;2023-03-26T17:54:16;98948.69;;;11.05;64.72
46347;BME280;32057;47.830;19.046;2023-03-26T17:56:47;98958.22;;;11.01;63.87
46347;BME280;32057;47.830;19.046;2023-03-26T17:59:18;98964.28;;;11.03;65.01
46347;BME280;32057;47.830;19.046;2023-03-26T18:01:50;98965.13;;;11.10;65.72
46347;BME280;32057;47.830;19.046;2023-03-26T18:04:25;98961.66;;;11.08;64.67
46347;BME280;32057;47.830;19.046;2023-03-26T18:18:13;98950.41;;;11.06;67.22
46347;BME280;32057;47.830;19.046;2023-03-26T18:20:45;98946.94;;;11.04;68.16
46347;BME280;32057;47.830;19.046;2023-03-26T18:23:43;98944.38;;;10.93;70.90
46347;BME280;32057;47.830;19.046;2023-03-26T18:26:15;98939.16;;;10.90;70.93
46347;BME280;32057;47.830;19.046;2023-03-26T18:28:48;98933.13;;;10.83;72.39
46347;BME280;32057;47.830;19.046;2023-03-26T18:31:31;98926.19;;;10.87;72.21
46347;BME280;32057;47.830;19.046;2023-03-26T18:33:58;98928.75;;;10.94;69.62
46347;BME280;32057;47.830;19.046;2023-03-26T18:36:29;98908.78;;;11.03;68.23
46347;BME280;32057;47.830;19.046;2023-03-26T18:38:58;98912.22;;;11.12;69.03
46347;BME280;32057;47.830;19.046;2023-03-26T18:41:33;98902.63;;;11.19;68.86
46347;BME280;32057;47.830;19.046;2023-03-26T18:44:11;98899.13;;;11.26;70.26
46347;BME280;32057;47.830;19.046;2023-03-26T18:46:37;98900.84;;;11.30;70.44
46347;BME280;32057;47.830;19.046;2023-03-26T18:49:03;98898.22;;;11.29;71.02
46347;BME280;32057;47.830;19.046;2023-03-26T18:51:30;98899.09;;;11.29;69.12
46347;BME280;32057;47.830;19.046;2023-03-26T18:53:58;98886.97;;;11.28;71.02
46347;BME280;32057;47.830;19.046;2023-03-26T18:56:45;98878.25;;;11.29;69.13
46347;BME280;32057;47.830;19.046;2023-03-26T18:59:34;98877.44;;;11.23;68.83
46347;BME280;32057;47.830;19.046;2023-03-26T19:02:04;98870.47;;;11.26;66.66
46347;BME280;32057;47.830;19.046;2023-03-26T19:04:31;98867.88;;;11.23;69.93
46347;BME280;32057;47.830;19.046;2023-03-26T19:06:59;98870.53;;;11.19;70.76
46347;BME280;32057;47.830;19.046;2023-03-26T19:09:27;98868.81;;;11.13;70.69
46347;BME280;32057;47.830;19.046;2023-03-26T19:11:55;98861.00;;;11.13;72.68
46347;BME280;32057;47.830;19.046;2023-03-26T19:14:22;98852.34;;;11.12;72.27
46347;BME280;32057;47.830;19.046;2023-03-26T19:16:58;98845.34;;;11.16;70.19
46347;BME280;32057;47.830;19.046;2023-03-26T19:19:34;98837.56;;;11.11;69.41
46347;BME280;32057;47.830;19.046;2023-03-26T19:22:03;98846.19;;;11.20;65.55
46347;BME280;32057;47.830;19.046;2023-03-26T19:24:29;98834.88;;;11.28;63.81
46347;BME280;32057;47.830;19.046;2023-03-26T19:26:55;98828.72;;;11.35;63.66
46347;BME280;32057;47.830;19.046;2023-03-26T19:29:27;98824.38;;;11.41;63.77
46347;BME280;32057;47.830;19.046;2023-03-26T19:32:00;98825.97;;;11.54;60.24
46347;BME280;32057;47.830;19.046;2023-03-26T19:34:32;98823.31;;;11.66;59.38
46347;BME280;32057;47.830;19.046;2023-03-26T19:37:01;98818.00;;;11.74;58.77
46347;BME280;32057;47.830;19.046;2023-03-26T19:42:29;98814.97;;;12.22;60.74
46347;BME280;32057;47.830;19.046;2023-03-26T19:44:55;98804.59;;;12.19;59.30
46347;BME280;32057;47.830;19.046;2023-03-26T19:47:39;98808.19;;;12.08;59.29
46347;BME280;32057;47.830;19.046;2023-03-26T19:50:32;98802.97;;;12.08;58.51